sensor_id;sensor_type;location;lat;lon;timestamp;pressure;altitude;pressure_sealevel;temperature;humidity
11985;BME280;6052;53.246;10.368;2023-04-04T00:01:38;102687.22;;;5.99;64.29
11985;BME280;6052;53.246;10.368;2023-04-04T00:04:07;102694.72;;;5.96;64.12
11985;BME280;6052;53.246;10.368;2023-04-04T00:06:37;102690.53;;;5.93;64.00
11985;BME280;6052;53.246;10.368;2023-04-04T00:09:12;102690.84;;;5.90;64.04
11985;BME280;6052;53.246;10.368;2023-04-04T00:11:41;102690.66;;;5.84;64.17
11985;BME280;6052;53.246;10.368;2023-04-04T00:14:11;102694.28;;;5.83;64.17
11985;BME280;6052;53.246;10.368;2023-04-04T00:16:40;102697.28;;;6.05;64.17
11985;BME280;6052;53.246;10.368;2023-04-04T00:19:10;102693.78;;;6.05;64.12
11985;BME280;6052;53.246;10.368;2023-04-04T00:21:43;102686.41;;;5.99;64.18
11985;BME280;6052;53.246;10.368;2023-04-04T00:24:16;102690.69;;;5.92;64.64
11985;BME280;6052;53.246;10.368;2023-04-04T00:26:45;102685.34;;;5.92;64.13
11985;BME280;6052;53.246;10.368;2023-04-04T00:29:14;102682.19;;;5.88;64.48
11985;BME280;6052;53.246;10.368;2023-04-04T00:31:44;102681.66;;;5.85;63.97
11985;BME280;6052;53.246;10.368;2023-04-04T00:34:13;102683.25;;;5.78;64.17
11985;BME280;6052;53.246;10.368;2023-04-04T00:36:43;102680.41;;;5.71;64.12
11985;BME280;6052;53.246;10.368;2023-04-04T00:39:15;102676.44;;;5.58;64.23
11985;BME280;6052;53.246;10.368;2023-04-04T00:41:47;102676.94;;;5.53;64.90
11985;BME280;6052;53.246;10.368;2023-04-04T00:44:17;102673.13;;;5.56;64.60
11985;BME280;6052;53.246;10.368;2023-04-04T00:46:46;102671.59;;;5.53;64.85
11985;BME280;6052;53.246;10.368;2023-04-04T00:49:16;102666.97;;;5.38;64.55
11985;BME280;6052;53.246;10.368;2023-04-04T00:51:49;102669.91;;;5.27;64.39
11985;BME280;6052;53.246;10.368;2023-04-04T00:54:21;102663.44;;;5.29;65.05
11985;BME280;6052;53.246;10.368;2023-04-04T00:56:51;102657.25;;;5.29;65.04
11985;BME280;6052;53.246;10.368;2023-04-04T00:59:21;102660.09;;;5.27;64.83
11985;BME280;6052;53.246;10.368;2023-04-04T01:01:54;102662.28;;;5.32;65.70
11985;BME280;6052;53.246;10.368;2023-04-04T01:04:25;102654.06;;;5.25;65.81
11985;BME280;6052;53.246;10.368;2023-04-04T01:06:55;102656.72;;;5.25;65.91
11985;BME280;6052;53.246;10.368;2023-04-04T01:09:28;102660.53;;;5.23;65.77
11985;BME280;6052;53.246;10.368;2023-04-04T01:11:58;102673.84;;;5.23;66.03
11985;BME280;6052;53.246;10.368;2023-04-04T01:14:28;102660.69;;;5.21;66.03
11985;BME280;6052;53.246;10.368;2023-04-04T01:16:58;102660.53;;;5.23;66.04
11985;BME280;6052;53.246;10.368;2023-04-04T01:19:32;102660.09;;;5.27;65.99
11985;BME280;6052;53.246;10.368;2023-04-04T01:22:04;102657.50;;;5.18;65.88
11985;BME280;6052;53.246;10.368;2023-04-04T01:24:38;102656.97;;;5.14;66.37
11985;BME280;6052;53.246;10.368;2023-04-04T01:27:13;102655.53;;;5.20;66.17
11985;BME280;6052;53.246;10.368;2023-04-04T01:29:42;102650.88;;;5.22;66.34
11985;BME280;6052;53.246;10.368;2023-04-04T01:32:14;102656.31;;;5.12;66.42
11985;BME280;6052;53.246;10.368;2023-04-04T01:34:50;102652.81;;;5.12;66.29
11985;BME280;6052;53.246;10.368;2023-04-04T01:37:29;102647.09;;;5.07;66.47
11985;BME280;6052;53.246;10.368;2023-04-04T01:40:07;102648.09;;;5.06;66.68
11985;BME280;6052;53.246;10.368;2023-04-04T01:42:43;102642.59;;;5.07;66.27
11985;BME280;6052;53.246;10.368;2023-04-04T01:45:13;102639.13;;;5.07;66.57
11985;BME280;6052;53.246;10.368;2023-04-04T01:47:42;102641.84;;;4.97;67.01
11985;BME280;6052;53.246;10.368;2023-04-04T01:50:12;102630.28;;;5.06;67.18
11985;BME280;6052;53.246;10.368;2023-04-04T01:52:44;102629.91;;;5.01;67.29
11985;BME280;6052;53.246;10.368;2023-04-04T01:55:16;102630.38;;;4.97;67.44
11985;BME280;6052;53.246;10.368;2023-04-04T01:57:53;102625.88;;;4.97;67.57
11985;BME280;6052;53.246;10.368;2023-04-04T02:00:23;102624.06;;;4.98;67.95
11985;BME280;6052;53.246;10.368;2023-04-04T02:02:52;102626.66;;;4.90;68.05
11985;BME280;6052;53.246;10.368;2023-04-04T02:05:23;102619.97;;;4.86;67.85
11985;BME280;6052;53.246;10.368;2023-04-04T02:07:53;102624.47;;;4.85;67.99
11985;BME280;6052;53.246;10.368;2023-04-04T02:10:25;102615.63;;;4.85;68.23
11985;BME280;6052;53.246;10.368;2023-04-04T02:12:58;102614.97;;;4.83;68.20
11985;BME280;6052;53.246;10.368;2023-04-04T02:15:27;102614.19;;;4.90;67.70
11985;BME280;6052;53.246;10.368;2023-04-04T02:17:57;102605.69;;;4.87;67.80
11985;BME280;6052;53.246;10.368;2023-04-04T02:20:27;102613.06;;;4.93;67.57
11985;BME280;6052;53.246;10.368;2023-04-04T02:22:57;102615.63;;;4.85;67.70
11985;BME280;6052;53.246;10.368;2023-04-04T02:25:26;102611.81;;;4.87;67.97
11985;BME280;6052;53.246;10.368;2023-04-04T02:27:58;102615.25;;;4.80;68.10
11985;BME280;6052;53.246;10.368;2023-04-04T02:30:27;102616.25;;;4.79;68.25
11985;BME280;6052;53.246;10.368;2023-04-04T02:32:57;102605.59;;;4.79;67.88
11985;BME280;6052;53.246;10.368;2023-04-04T02:35:26;102614.44;;;4.62;68.90
11985;BME280;6052;53.246;10.368;2023-04-04T02:37:56;102608.41;;;4.60;68.95
11985;BME280;6052;53.246;10.368;2023-04-04T02:40:25;102607.13;;;4.64;69.20
11985;BME280;6052;53.246;10.368;2023-04-04T02:42:57;102601.03;;;4.54;69.11
11985;BME280;6052;53.246;10.368;2023-04-04T02:45:27;102607.34;;;4.53;69.23
11985;BME280;6052;53.246;10.368;2023-04-04T02:47:56;102608.25;;;4.61;69.26
11985;BME280;6052;53.246;10.368;2023-04-04T02:50:25;102611.78;;;4.62;69.00
11985;BME280;6052;53.246;10.368;2023-04-04T02:52:58;102595.50;;;4.47;69.25
11985;BME280;6052;53.246;10.368;2023-04-04T02:55:27;102602.47;;;4.48;69.31
11985;BME280;6052;53.246;10.368;2023-04-04T02:57:59;102604.69;;;4.53;69.19
11985;BME280;6052;53.246;10.368;2023-04-04T03:00:29;102598.69;;;4.51;69.09
11985;BME280;6052;53.246;10.368;2023-04-04T03:02:58;102598.53;;;4.52;69.31
11985;BME280;6052;53.246;10.368;2023-04-04T03:05:28;102598.09;;;4.57;69.02
11985;BME280;6052;53.246;10.368;2023-04-04T03:07:59;102599.66;;;4.50;68.83
11985;BME280;6052;53.246;10.368;2023-04-04T03:10:33;102599.06;;;4.56;68.84
11985;BME280;6052;53.246;10.368;2023-04-04T03:13:05;102590.88;;;4.49;68.78
11985;BME280;6052;53.246;10.368;2023-04-04T03:15:34;102585.09;;;4.54;68.69
11985;BME280;6052;53.246;10.368;2023-04-04T03:18:06;102594.59;;;4.56;68.67
11985;BME280;6052;53.246;10.368;2023-04-04T03:20:35;102595.50;;;4.47;68.62
11985;BME280;6052;53.246;10.368;2023-04-04T03:23:05;102592.16;;;4.45;68.79
11985;BME280;6052;53.246;10.368;2023-04-04T03:25:38;102593.34;;;4.51;68.44
11985;BME280;6052;53.246;10.368;2023-04-04T03:28:10;102588.97;;;4.42;68.81
11985;BME280;6052;53.246;10.368;2023-04-04T03:30:40;102589.94;;;4.41;68.78
11985;BME280;6052;53.246;10.368;2023-04-04T03:33:09;102593.22;;;4.52;68.91
11985;BME280;6052;53.246;10.368;2023-04-04T03:35:39;102593.59;;;4.57;68.42
11985;BME280;6052;53.246;10.368;2023-04-04T03:38:09;102585.31;;;4.60;68.28
11985;BME280;6052;53.246;10.368;2023-04-04T03:40:39;102592.44;;;4.60;68.11
11985;BME280;6052;53.246;10.368;2023-04-04T03:43:14;102587.84;;;4.62;68.17
11985;BME280;6052;53.246;10.368;2023-04-04T03:45:43;102575.75;;;4.50;68.28
11985;BME280;6052;53.246;10.368;2023-04-04T03:48:13;102588.50;;;4.64;67.97
11985;BME280;6052;53.246;10.368;2023-04-04T03:50:43;102587.13;;;4.60;68.35
11985;BME280;6052;53.246;10.368;2023-04-04T03:53:14;102585.94;;;4.54;67.94
11985;BME280;6052;53.246;10.368;2023-04-04T03:55:43;102586.84;;;4.63;68.08
11985;BME280;6052;53.246;10.368;2023-04-04T03:58:18;102585.56;;;4.67;68.25
11985;BME280;6052;53.246;10.368;2023-04-04T04:00:48;102574.31;;;4.73;68.08
11985;BME280;6052;53.246;10.368;2023-04-04T04:03:17;102579.63;;;4.73;68.06
11985;BME280;6052;53.246;10.368;2023-04-04T04:05:47;102580.28;;;4.75;67.89
11985;BME280;6052;53.246;10.368;2023-04-04T04:08:16;102580.78;;;4.70;67.78
11985;BME280;6052;53.246;10.368;2023-04-04T04:10:48;102574.53;;;4.79;67.93
11985;BME280;6052;53.246;10.368;2023-04-04T04:13:20;102578.63;;;4.74;67.92
11985;BME280;6052;53.246;10.368;2023-04-04T04:15:49;102574.59;;;4.70;67.96
11985;BME280;6052;53.246;10.368;2023-04-04T04:18:19;102568.00;;;4.74;68.11
11985;BME280;6052;53.246;10.368;2023-04-04T04:20:48;102576.06;;;4.64;68.12
11985;BME280;6052;53.246;10.368;2023-04-04T04:23:17;102566.84;;;4.59;68.28
11985;BME280;6052;53.246;10.368;2023-04-04T04:25:47;102575.13;;;4.38;68.84
11985;BME280;6052;53.246;10.368;2023-04-04T04:28:16;102574.97;;;4.40;69.48
11985;BME280;6052;53.246;10.368;2023-04-04T04:30:48;102580.75;;;4.35;69.58
11985;BME280;6052;53.246;10.368;2023-04-04T04:33:18;102579.91;;;4.35;69.51
11985;BME280;6052;53.246;10.368;2023-04-04T04:35:47;102578.53;;;4.31;69.77
11985;BME280;6052;53.246;10.368;2023-04-04T04:38:17;102578.47;;;4.40;69.40
11985;BME280;6052;53.246;10.368;2023-04-04T04:40:46;102585.38;;;4.51;69.09
11985;BME280;6052;53.246;10.368;2023-04-04T04:43:16;102591.78;;;4.58;68.80
11985;BME280;6052;53.246;10.368;2023-04-04T04:45:48;102588.28;;;4.57;68.86
11985;BME280;6052;53.246;10.368;2023-04-04T04:48:18;102588.50;;;4.64;68.77
11985;BME280;6052;53.246;10.368;2023-04-04T04:50:48;102580.91;;;4.51;68.98
11985;BME280;6052;53.246;10.368;2023-04-04T04:53:17;102579.88;;;4.62;68.90
11985;BME280;6052;53.246;10.368;2023-04-04T04:55:47;102581.19;;;4.48;68.83
11985;BME280;6052;53.246;10.368;2023-04-04T04:58:17;102577.97;;;4.37;69.50
11985;BME280;6052;53.246;10.368;2023-04-04T05:00:56;102582.13;;;4.57;69.29
11985;BME280;6052;53.246;10.368;2023-04-04T05:03:25;102576.97;;;4.55;69.13
11985;BME280;6052;53.246;10.368;2023-04-04T05:05:55;102572.78;;;4.53;69.33
11985;BME280;6052;53.246;10.368;2023-04-04T05:08:24;102572.19;;;4.59;69.10
11985;BME280;6052;53.246;10.368;2023-04-04T05:10:53;102573.31;;;4.56;69.22
11985;BME280;6052;53.246;10.368;2023-04-04T05:13:23;102568.75;;;4.66;69.24
11985;BME280;6052;53.246;10.368;2023-04-04T05:15:52;102578.03;;;4.62;69.16
11985;BME280;6052;53.246;10.368;2023-04-04T05:18:24;102574.06;;;4.66;69.29
11985;BME280;6052;53.246;10.368;2023-04-04T05:20:54;102572.69;;;4.62;69.25
11985;BME280;6052;53.246;10.368;2023-04-04T05:23:23;102578.16;;;4.61;69.08
11985;BME280;6052;53.246;10.368;2023-04-04T05:25:53;102586.53;;;4.66;69.38
11985;BME280;6052;53.246;10.368;2023-04-04T05:28:22;102587.47;;;4.57;69.50
11985;BME280;6052;53.246;10.368;2023-04-04T05:30:52;102584.56;;;4.50;69.59
11985;BME280;6052;53.246;10.368;2023-04-04T05:33:26;102596.88;;;4.51;69.70
11985;BME280;6052;53.246;10.368;2023-04-04T05:35:55;102590.09;;;4.39;70.08
11985;BME280;6052;53.246;10.368;2023-04-04T05:38:25;102589.53;;;4.36;70.31
11985;BME280;6052;53.246;10.368;2023-04-04T05:40:54;102586.22;;;4.34;70.55
11985;BME280;6052;53.246;10.368;2023-04-04T05:43:24;102586.88;;;4.36;70.54
11985;BME280;6052;53.246;10.368;2023-04-04T05:45:54;102586.88;;;4.36;70.85
11985;BME280;6052;53.246;10.368;2023-04-04T05:48:26;102589.31;;;4.29;70.76
11985;BME280;6052;53.246;10.368;2023-04-04T05:50:55;102586.22;;;4.34;70.80
11985;BME280;6052;53.246;10.368;2023-04-04T05:53:24;102576.03;;;4.29;71.05
11985;BME280;6052;53.246;10.368;2023-04-04T05:55:54;102588.50;;;4.29;71.27
11985;BME280;6052;53.246;10.368;2023-04-04T05:58:24;102580.81;;;4.26;71.04
11985;BME280;6052;53.246;10.368;2023-04-04T06:00:53;102587.97;;;4.25;71.60
11985;BME280;6052;53.246;10.368;2023-04-04T06:03:22;102586.44;;;4.23;72.45
11985;BME280;6052;53.246;10.368;2023-04-04T06:05:57;102589.25;;;4.21;72.92
11985;BME280;6052;53.246;10.368;2023-04-04T06:08:26;102590.91;;;4.22;73.82
11985;BME280;6052;53.246;10.368;2023-04-04T06:11:03;102591.56;;;4.24;73.93
11985;BME280;6052;53.246;10.368;2023-04-04T06:13:32;102592.72;;;4.22;75.15
11985;BME280;6052;53.246;10.368;2023-04-04T06:16:02;102591.91;;;4.21;75.01
11985;BME280;6052;53.246;10.368;2023-04-04T06:18:32;102595.69;;;4.19;75.40
11985;BME280;6052;53.246;10.368;2023-04-04T06:21:04;102601.06;;;4.27;75.69
11985;BME280;6052;53.246;10.368;2023-04-04T06:23:36;102600.28;;;4.17;76.26
11985;BME280;6052;53.246;10.368;2023-04-04T06:26:06;102598.63;;;4.16;76.36
11985;BME280;6052;53.246;10.368;2023-04-04T06:28:35;102593.16;;;4.17;76.11
11985;BME280;6052;53.246;10.368;2023-04-04T06:31:05;102585.66;;;4.13;76.94
11985;BME280;6052;53.246;10.368;2023-04-04T06:33:34;102587.84;;;4.17;76.49
11985;BME280;6052;53.246;10.368;2023-04-04T06:36:06;102587.84;;;4.17;77.00
11985;BME280;6052;53.246;10.368;2023-04-04T06:38:36;102593.16;;;4.17;78.51
11985;BME280;6052;53.246;10.368;2023-04-04T06:41:05;102589.66;;;4.17;78.34
11985;BME280;6052;53.246;10.368;2023-04-04T06:43:36;102598.28;;;4.28;77.32
11985;BME280;6052;53.246;10.368;2023-04-04T06:46:05;102594.72;;;4.37;76.43
11985;BME280;6052;53.246;10.368;2023-04-04T06:48:34;102596.00;;;4.33;77.89
11985;BME280;6052;53.246;10.368;2023-04-04T06:51:07;102592.22;;;4.36;77.48
11985;BME280;6052;53.246;10.368;2023-04-04T06:53:36;102593.06;;;4.36;78.19
11985;BME280;6052;53.246;10.368;2023-04-04T06:56:08;102598.38;;;4.36;78.78
11985;BME280;6052;53.246;10.368;2023-04-04T06:58:37;102602.47;;;4.48;78.57
11985;BME280;6052;53.246;10.368;2023-04-04T07:01:07;102594.06;;;4.53;77.56
11985;BME280;6052;53.246;10.368;2023-04-04T07:03:37;102588.03;;;4.51;79.23
11985;BME280;6052;53.246;10.368;2023-04-04T07:06:09;102596.88;;;4.51;79.94
11985;BME280;6052;53.246;10.368;2023-04-04T07:08:39;102596.56;;;4.37;81.39
11985;BME280;6052;53.246;10.368;2023-04-04T07:11:09;102604.91;;;4.42;81.36
11985;BME280;6052;53.246;10.368;2023-04-04T07:13:39;102610.91;;;4.44;81.29
11985;BME280;6052;53.246;10.368;2023-04-04T07:16:08;102609.53;;;4.40;82.91
11985;BME280;6052;53.246;10.368;2023-04-04T07:18:37;102602.47;;;4.48;84.41
11985;BME280;6052;53.246;10.368;2023-04-04T07:21:09;102599.66;;;4.50;82.74
11985;BME280;6052;53.246;10.368;2023-04-04T07:23:39;102602.56;;;4.56;84.57
11985;BME280;6052;53.246;10.368;2023-04-04T07:26:08;102608.16;;;4.53;85.60
11985;BME280;6052;53.246;10.368;2023-04-04T07:28:37;102602.03;;;4.53;86.84
11985;BME280;6052;53.246;10.368;2023-04-04T07:31:07;102599.00;;;4.48;86.46
11985;BME280;6052;53.246;10.368;2023-04-04T07:33:36;102605.13;;;4.66;87.84
11985;BME280;6052;53.246;10.368;2023-04-04T07:36:08;102599.81;;;4.66;87.33
11985;BME280;6052;53.246;10.368;2023-04-04T07:38:38;102595.34;;;4.49;87.30
11985;BME280;6052;53.246;10.368;2023-04-04T07:41:07;102590.66;;;4.60;86.58
11985;BME280;6052;53.246;10.368;2023-04-04T07:43:37;102583.50;;;4.78;89.78
11985;BME280;6052;53.246;10.368;2023-04-04T07:46:06;102587.66;;;4.63;87.59
11985;BME280;6052;53.246;10.368;2023-04-04T07:48:36;102594.50;;;4.66;85.58
11985;BME280;6052;53.246;10.368;2023-04-04T07:51:05;102596.78;;;4.61;85.05
11985;BME280;6052;53.246;10.368;2023-04-04T07:53:37;102587.84;;;4.62;84.08
11985;BME280;6052;53.246;10.368;2023-04-04T07:56:06;102589.72;;;4.87;83.48
11985;BME280;6052;53.246;10.368;2023-04-04T07:58:36;102587.59;;;4.90;82.67
11985;BME280;6052;53.246;10.368;2023-04-04T08:01:05;102588.47;;;4.99;82.80
11985;BME280;6052;53.246;10.368;2023-04-04T08:03:34;102586.91;;;5.06;81.53
11985;BME280;6052;53.246;10.368;2023-04-04T08:06:04;102588.56;;;5.07;83.09
11985;BME280;6052;53.246;10.368;2023-04-04T08:08:34;102580.91;;;5.29;82.13
11985;BME280;6052;53.246;10.368;2023-04-04T08:11:05;102584.94;;;5.33;85.30
11985;BME280;6052;53.246;10.368;2023-04-04T08:13:35;102577.66;;;5.43;84.64
11985;BME280;6052;53.246;10.368;2023-04-04T08:16:04;102581.16;;;5.44;82.81
11985;BME280;6052;53.246;10.368;2023-04-04T08:18:34;102572.38;;;5.51;79.86
11985;BME280;6052;53.246;10.368;2023-04-04T08:21:04;102570.31;;;5.71;76.63
11985;BME280;6052;53.246;10.368;2023-04-04T08:23:33;102567.66;;;5.71;77.55
11985;BME280;6052;53.246;10.368;2023-04-04T08:26:03;102573.00;;;5.71;75.68
11985;BME280;6052;53.246;10.368;2023-04-04T08:28:35;102570.41;;;5.87;73.44
11985;BME280;6052;53.246;10.368;2023-04-04T08:31:04;102572.44;;;5.85;77.20
11985;BME280;6052;53.246;10.368;2023-04-04T08:33:34;102573.25;;;5.85;74.11
11985;BME280;6052;53.246;10.368;2023-04-04T08:36:09;102571.16;;;6.05;75.06
11985;BME280;6052;53.246;10.368;2023-04-04T08:38:39;102569.16;;;6.07;78.39
11985;BME280;6052;53.246;10.368;2023-04-04T08:41:08;102562.91;;;6.24;80.24
11985;BME280;6052;53.246;10.368;2023-04-04T08:43:45;102575.94;;;6.51;81.53
11985;BME280;6052;53.246;10.368;2023-04-04T08:46:20;102566.63;;;6.55;78.82
11985;BME280;6052;53.246;10.368;2023-04-04T08:48:51;102564.09;;;6.53;76.01
11985;BME280;6052;53.246;10.368;2023-04-04T08:51:21;102563.78;;;6.56;80.86
11985;BME280;6052;53.246;10.368;2023-04-04T08:53:53;102562.59;;;6.35;76.82
11985;BME280;6052;53.246;10.368;2023-04-04T08:56:24;102566.47;;;6.96;71.06
11985;BME280;6052;53.246;10.368;2023-04-04T08:58:56;102561.47;;;6.61;75.45
11985;BME280;6052;53.246;10.368;2023-04-04T09:01:26;102562.44;;;6.68;73.36
11985;BME280;6052;53.246;10.368;2023-04-04T09:03:57;102559.13;;;6.50;71.36
11985;BME280;6052;53.246;10.368;2023-04-04T09:06:27;102564.44;;;6.42;72.38
11985;BME280;6052;53.246;10.368;2023-04-04T09:08:57;102570.09;;;6.31;70.75
11985;BME280;6052;53.246;10.368;2023-04-04T09:11:29;102568.81;;;6.83;72.54
11985;BME280;6052;53.246;10.368;2023-04-04T09:14:02;102564.16;;;6.69;69.91
11985;BME280;6052;53.246;10.368;2023-04-04T09:16:32;102563.13;;;6.62;66.92
11985;BME280;6052;53.246;10.368;2023-04-04T09:19:02;102561.16;;;6.88;71.75
11985;BME280;6052;53.246;10.368;2023-04-04T09:21:32;102562.81;;;6.73;72.96
11985;BME280;6052;53.246;10.368;2023-04-04T09:24:02;102560.28;;;7.04;75.00
11985;BME280;6052;53.246;10.368;2023-04-04T09:26:45;102560.63;;;7.09;71.01
11985;BME280;6052;53.246;10.368;2023-04-04T09:29:20;102553.94;;;7.05;69.87
11985;BME280;6052;53.246;10.368;2023-04-04T09:31:52;102557.94;;;7.17;69.68
11985;BME280;6052;53.246;10.368;2023-04-04T09:34:22;102553.47;;;7.09;67.45
11985;BME280;6052;53.246;10.368;2023-04-04T09:36:52;102554.09;;;7.11;67.35
11985;BME280;6052;53.246;10.368;2023-04-04T09:39:22;102554.47;;;7.08;66.92
11985;BME280;6052;53.246;10.368;2023-04-04T09:41:52;102556.28;;;7.00;67.56
11985;BME280;6052;53.246;10.368;2023-04-04T09:44:24;102554.63;;;7.07;64.92
11985;BME280;6052;53.246;10.368;2023-04-04T09:47:05;102552.72;;;7.39;67.26
11985;BME280;6052;53.246;10.368;2023-04-04T09:49:40;102551.94;;;7.31;68.73
11985;BME280;6052;53.246;10.368;2023-04-04T09:52:16;102549.59;;;7.28;67.36
11985;BME280;6052;53.246;10.368;2023-04-04T09:54:55;102547.75;;;7.28;65.40
11985;BME280;6052;53.246;10.368;2023-04-04T09:57:28;102550.38;;;7.36;69.58
11985;BME280;6052;53.246;10.368;2023-04-04T10:00:01;102544.06;;;7.37;66.82
11985;BME280;6052;53.246;10.368;2023-04-04T10:02:32;102545.50;;;7.56;66.62
11985;BME280;6052;53.246;10.368;2023-04-04T10:05:02;102533.72;;;7.34;65.86
11985;BME280;6052;53.246;10.368;2023-04-04T10:07:32;102535.78;;;7.63;68.42
11985;BME280;6052;53.246;10.368;2023-04-04T10:10:04;102537.41;;;7.80;68.53
11985;BME280;6052;53.246;10.368;2023-04-04T10:12:35;102527.41;;;7.27;66.21
11985;BME280;6052;53.246;10.368;2023-04-04T10:15:08;102527.72;;;7.24;65.04
11985;BME280;6052;53.246;10.368;2023-04-04T10:17:39;102530.84;;;7.44;65.82
11985;BME280;6052;53.246;10.368;2023-04-04T10:20:09;102525.66;;;7.50;66.08
11985;BME280;6052;53.246;10.368;2023-04-04T10:22:39;102523.00;;;7.89;67.09
11985;BME280;6052;53.246;10.368;2023-04-04T10:25:10;102522.97;;;7.58;65.09
11985;BME280;6052;53.246;10.368;2023-04-04T10:27:39;102519.34;;;7.82;64.27
11985;BME280;6052;53.246;10.368;2023-04-04T10:30:12;102515.25;;;7.63;62.85
11985;BME280;6052;53.246;10.368;2023-04-04T10:32:47;102511.00;;;7.85;65.18
11985;BME280;6052;53.246;10.368;2023-04-04T10:35:20;102512.06;;;7.68;62.43
11985;BME280;6052;53.246;10.368;2023-04-04T10:37:54;102508.91;;;7.64;61.36
11985;BME280;6052;53.246;10.368;2023-04-04T10:40:29;102508.63;;;7.51;59.85
11985;BME280;6052;53.246;10.368;2023-04-04T10:43:02;102508.56;;;7.67;61.52
11985;BME280;6052;53.246;10.368;2023-04-04T10:45:35;102509.63;;;7.89;63.57
11985;BME280;6052;53.246;10.368;2023-04-04T10:48:06;102513.00;;;8.13;63.81
11985;BME280;6052;53.246;10.368;2023-04-04T10:50:37;102505.84;;;8.06;68.02
11985;BME280;6052;53.246;10.368;2023-04-04T10:53:07;102494.81;;;7.78;60.94
11985;BME280;6052;53.246;10.368;2023-04-04T10:55:36;102493.22;;;7.92;58.74
11985;BME280;6052;53.246;10.368;2023-04-04T10:58:07;102494.81;;;8.09;61.46
11985;BME280;6052;53.246;10.368;2023-04-04T11:00:51;102484.72;;;8.19;59.95
11985;BME280;6052;53.246;10.368;2023-04-04T11:03:21;102487.97;;;8.06;56.71
11985;BME280;6052;53.246;10.368;2023-04-04T11:05:51;102483.56;;;8.21;58.24
11985;BME280;6052;53.246;10.368;2023-04-04T11:08:27;102479.22;;;8.43;61.00
11985;BME280;6052;53.246;10.368;2023-04-04T11:10:58;102481.91;;;8.20;57.93
11985;BME280;6052;53.246;10.368;2023-04-04T11:13:33;102479.88;;;8.22;58.60
11985;BME280;6052;53.246;10.368;2023-04-04T11:16:10;102470.25;;;8.36;59.08
11985;BME280;6052;53.246;10.368;2023-04-04T11:18:45;102472.22;;;8.11;55.71
11985;BME280;6052;53.246;10.368;2023-04-04T11:21:18;102471.72;;;8.38;62.56
11985;BME280;6052;53.246;10.368;2023-04-04T11:24:12;102467.47;;;8.29;59.69
11985;BME280;6052;53.246;10.368;2023-04-04T11:26:42;102477.63;;;8.03;58.68
11985;BME280;6052;53.246;10.368;2023-04-04T11:29:20;102471.53;;;8.17;59.45
11985;BME280;6052;53.246;10.368;2023-04-04T11:31:54;102471.56;;;8.09;59.31
11985;BME280;6052;53.246;10.368;2023-04-04T11:34:31;102467.59;;;8.05;56.84
11985;BME280;6052;53.246;10.368;2023-04-04T11:37:14;102454.56;;;8.33;57.64
11985;BME280;6052;53.246;10.368;2023-04-04T11:39:47;102459.91;;;8.33;57.81
11985;BME280;6052;53.246;10.368;2023-04-04T11:42:22;102454.13;;;8.44;58.70
11985;BME280;6052;53.246;10.368;2023-04-04T11:45:03;102447.63;;;8.38;54.71
11985;BME280;6052;53.246;10.368;2023-04-04T11:47:38;102443.66;;;8.57;56.91
11985;BME280;6052;53.246;10.368;2023-04-04T11:50:08;102443.94;;;8.62;56.68
11985;BME280;6052;53.246;10.368;2023-04-04T11:52:40;102437.41;;;8.64;56.76
11985;BME280;6052;53.246;10.368;2023-04-04T11:55:15;102441.31;;;8.39;54.45
11985;BME280;6052;53.246;10.368;2023-04-04T11:57:46;102434.56;;;8.43;56.31
11985;BME280;6052;53.246;10.368;2023-04-04T12:00:28;102430.81;;;8.30;55.16
11985;BME280;6052;53.246;10.368;2023-04-04T12:03:00;102429.75;;;8.39;56.41
11985;BME280;6052;53.246;10.368;2023-04-04T12:05:30;102424.41;;;8.39;54.47
11985;BME280;6052;53.246;10.368;2023-04-04T12:07:59;102423.22;;;8.78;56.27
11985;BME280;6052;53.246;10.368;2023-04-04T12:10:30;102418.41;;;8.88;56.13
11985;BME280;6052;53.246;10.368;2023-04-04T12:13:05;102417.00;;;8.78;58.17
11985;BME280;6052;53.246;10.368;2023-04-04T12:15:35;102404.63;;;8.62;55.22
11985;BME280;6052;53.246;10.368;2023-04-04T12:18:08;102401.59;;;8.80;56.70
11985;BME280;6052;53.246;10.368;2023-04-04T12:20:38;102405.19;;;9.01;57.20
11985;BME280;6052;53.246;10.368;2023-04-04T12:23:08;102400.50;;;8.74;56.55
11985;BME280;6052;53.246;10.368;2023-04-04T12:25:38;102399.47;;;8.90;56.43
11985;BME280;6052;53.246;10.368;2023-04-04T12:28:10;102397.16;;;9.01;55.92
11985;BME280;6052;53.246;10.368;2023-04-04T12:30:40;102397.28;;;8.93;55.65
11985;BME280;6052;53.246;10.368;2023-04-04T12:33:12;102392.84;;;8.86;55.73
11985;BME280;6052;53.246;10.368;2023-04-04T12:35:50;102392.38;;;8.97;55.95
11985;BME280;6052;53.246;10.368;2023-04-04T12:38:20;102387.22;;;8.81;55.24
11985;BME280;6052;53.246;10.368;2023-04-04T12:40:50;102385.09;;;8.91;56.02
11985;BME280;6052;53.246;10.368;2023-04-04T12:43:19;102381.28;;;8.85;57.20
11985;BME280;6052;53.246;10.368;2023-04-04T12:45:49;102378.63;;;8.71;53.73
11985;BME280;6052;53.246;10.368;2023-04-04T12:48:26;102383.25;;;9.06;58.46
11985;BME280;6052;53.246;10.368;2023-04-04T12:50:57;102371.97;;;8.96;56.71
11985;BME280;6052;53.246;10.368;2023-04-04T12:53:29;102369.56;;;9.01;55.11
11985;BME280;6052;53.246;10.368;2023-04-04T12:56:00;102369.53;;;9.15;54.93
11985;BME280;6052;53.246;10.368;2023-04-04T12:58:31;102364.00;;;9.17;54.87
11985;BME280;6052;53.246;10.368;2023-04-04T13:01:03;102367.97;;;9.21;55.24
11985;BME280;6052;53.246;10.368;2023-04-04T13:03:37;102365.69;;;9.03;53.21
11985;BME280;6052;53.246;10.368;2023-04-04T13:06:11;102349.25;;;8.92;52.20
11985;BME280;6052;53.246;10.368;2023-04-04T13:08:50;102353.66;;;9.14;53.91
11985;BME280;6052;53.246;10.368;2023-04-04T13:11:20;102347.56;;;9.20;54.14
11985;BME280;6052;53.246;10.368;2023-04-04T13:13:59;102345.00;;;9.12;53.47
11985;BME280;6052;53.246;10.368;2023-04-04T13:16:30;102339.94;;;8.88;52.76
11985;BME280;6052;53.246;10.368;2023-04-04T13:19:04;102337.72;;;9.06;53.01
11985;BME280;6052;53.246;10.368;2023-04-04T13:21:33;102343.06;;;8.91;54.30